Terminal Aerodrome Forecast
Issued by NWS

Home | Current Version | Previous Version | Text Only | Print | Product List | Glossary On
Versions: 1 2 3 4 5 6 7 8 9 10 11
768
FTPA31 PHFO 260520
TAFHJR
TAF
PHJR 260520Z 2606/2706 05004KT P6SM FEW045
     FM262000 10008G14KT P6SM BKN045
     FM270400 05004KT P6SM SCT045=

USA.gov is the U.S. government's official web portal to all federal, state and local government web resources and services.